sensor_id;sensor_type;location;lat;lon;timestamp;temperature;humidity
11005;DHT22;5555;59.622;16.556;2022-12-20T00:00:12;1.00;99.90
11005;DHT22;5555;59.622;16.556;2022-12-20T00:02:38;1.10;99.90
11005;DHT22;5555;59.622;16.556;2022-12-20T00:05:04;1.00;99.90
11005;DHT22;5555;59.622;16.556;2022-12-20T00:07:30;1.10;99.90
11005;DHT22;5555;59.622;16.556;2022-12-20T00:09:56;1.10;99.90
11005;DHT22;5555;59.622;16.556;2022-12-20T00:12:22;1.10;99.90
11005;DHT22;5555;59.622;16.556;2022-12-20T00:14:48;1.10;99.90
11005;DHT22;5555;59.622;16.556;2022-12-20T00:17:13;1.10;99.90
11005;DHT22;5555;59.622;16.556;2022-12-20T00:19:39;1.10;99.90
11005;DHT22;5555;59.622;16.556;2022-12-20T00:22:04;1.10;99.90
11005;DHT22;5555;59.622;16.556;2022-12-20T00:24:30;1.10;99.90
11005;DHT22;5555;59.622;16.556;2022-12-20T00:26:57;1.10;99.90
11005;DHT22;5555;59.622;16.556;2022-12-20T00:29:23;1.10;99.90
11005;DHT22;5555;59.622;16.556;2022-12-20T00:31:48;1.10;99.90
11005;DHT22;5555;59.622;16.556;2022-12-20T00:34:14;1.10;99.90
11005;DHT22;5555;59.622;16.556;2022-12-20T00:36:40;1.10;99.90
11005;DHT22;5555;59.622;16.556;2022-12-20T00:39:05;1.10;99.90
11005;DHT22;5555;59.622;16.556;2022-12-20T00:41:33;1.10;99.90
11005;DHT22;5555;59.622;16.556;2022-12-20T00:43:59;1.10;99.90
11005;DHT22;5555;59.622;16.556;2022-12-20T00:46:25;1.10;99.90
11005;DHT22;5555;59.622;16.556;2022-12-20T00:48:51;1.10;99.90
11005;DHT22;5555;59.622;16.556;2022-12-20T00:51:20;1.10;99.90
11005;DHT22;5555;59.622;16.556;2022-12-20T00:53:46;1.10;99.90
11005;DHT22;5555;59.622;16.556;2022-12-20T00:56:12;1.10;99.90
11005;DHT22;5555;59.622;16.556;2022-12-20T00:58:40;1.10;99.90
11005;DHT22;5555;59.622;16.556;2022-12-20T01:01:33;1.20;99.90
11005;DHT22;5555;59.622;16.556;2022-12-20T01:04:01;1.20;99.90
11005;DHT22;5555;59.622;16.556;2022-12-20T01:06:27;1.10;99.90
11005;DHT22;5555;59.622;16.556;2022-12-20T01:08:54;1.20;99.90
11005;DHT22;5555;59.622;16.556;2022-12-20T01:11:25;1.20;99.90
11005;DHT22;5555;59.622;16.556;2022-12-20T01:13:57;1.20;99.90
11005;DHT22;5555;59.622;16.556;2022-12-20T01:16:28;1.20;99.90
11005;DHT22;5555;59.622;16.556;2022-12-20T01:18:54;1.20;99.90
11005;DHT22;5555;59.622;16.556;2022-12-20T01:21:22;1.20;99.90
11005;DHT22;5555;59.622;16.556;2022-12-20T01:23:48;1.20;99.90
11005;DHT22;5555;59.622;16.556;2022-12-20T01:26:17;1.20;99.90
11005;DHT22;5555;59.622;16.556;2022-12-20T01:28:45;1.20;99.90
11005;DHT22;5555;59.622;16.556;2022-12-20T01:31:13;1.20;99.90
11005;DHT22;5555;59.622;16.556;2022-12-20T01:33:40;1.20;99.90
11005;DHT22;5555;59.622;16.556;2022-12-20T01:36:10;1.20;99.90
11005;DHT22;5555;59.622;16.556;2022-12-20T01:38:36;1.20;99.90
11005;DHT22;5555;59.622;16.556;2022-12-20T01:41:03;1.10;99.90
11005;DHT22;5555;59.622;16.556;2022-12-20T01:43:45;1.10;99.90
11005;DHT22;5555;59.622;16.556;2022-12-20T01:46:11;1.20;99.90
11005;DHT22;5555;59.622;16.556;2022-12-20T01:48:37;1.20;99.90
11005;DHT22;5555;59.622;16.556;2022-12-20T01:51:03;1.10;99.90
11005;DHT22;5555;59.622;16.556;2022-12-20T01:53:29;1.10;99.90
11005;DHT22;5555;59.622;16.556;2022-12-20T01:55:58;1.10;99.90
11005;DHT22;5555;59.622;16.556;2022-12-20T01:58:26;1.20;99.90
11005;DHT22;5555;59.622;16.556;2022-12-20T02:00:51;1.10;99.90
11005;DHT22;5555;59.622;16.556;2022-12-20T02:03:17;1.10;99.90
11005;DHT22;5555;59.622;16.556;2022-12-20T02:05:45;1.10;99.90
11005;DHT22;5555;59.622;16.556;2022-12-20T02:08:15;1.10;99.90
11005;DHT22;5555;59.622;16.556;2022-12-20T02:16:28;1.10;99.90
11005;DHT22;5555;59.622;16.556;2022-12-20T02:30:37;1.10;99.90
11005;DHT22;5555;59.622;16.556;2022-12-20T02:33:08;1.10;99.90
11005;DHT22;5555;59.622;16.556;2022-12-20T02:35:37;1.10;99.90
11005;DHT22;5555;59.622;16.556;2022-12-20T02:38:29;1.10;99.90
11005;DHT22;5555;59.622;16.556;2022-12-20T02:41:01;1.20;99.90
11005;DHT22;5555;59.622;16.556;2022-12-20T02:43:29;1.20;99.90
11005;DHT22;5555;59.622;16.556;2022-12-20T02:46:15;1.20;99.90
11005;DHT22;5555;59.622;16.556;2022-12-20T02:48:42;1.20;99.90
11005;DHT22;5555;59.622;16.556;2022-12-20T02:51:10;1.20;99.90
11005;DHT22;5555;59.622;16.556;2022-12-20T02:53:37;1.20;99.90
11005;DHT22;5555;59.622;16.556;2022-12-20T02:56:11;1.10;99.90
11005;DHT22;5555;59.622;16.556;2022-12-20T02:59:05;1.10;99.90
11005;DHT22;5555;59.622;16.556;2022-12-20T03:01:45;1.20;99.90
11005;DHT22;5555;59.622;16.556;2022-12-20T03:04:11;1.20;99.90
11005;DHT22;5555;59.622;16.556;2022-12-20T03:06:39;1.20;99.90
11005;DHT22;5555;59.622;16.556;2022-12-20T03:09:19;1.20;99.90
11005;DHT22;5555;59.622;16.556;2022-12-20T03:11:45;1.20;99.90
11005;DHT22;5555;59.622;16.556;2022-12-20T03:14:10;1.20;99.90
11005;DHT22;5555;59.622;16.556;2022-12-20T03:16:36;1.20;99.90
11005;DHT22;5555;59.622;16.556;2022-12-20T03:19:02;1.20;99.90
11005;DHT22;5555;59.622;16.556;2022-12-20T03:21:27;1.20;99.90
11005;DHT22;5555;59.622;16.556;2022-12-20T03:23:53;1.20;99.90
11005;DHT22;5555;59.622;16.556;2022-12-20T03:26:18;1.20;99.90
11005;DHT22;5555;59.622;16.556;2022-12-20T03:28:44;1.20;99.90
11005;DHT22;5555;59.622;16.556;2022-12-20T03:31:10;1.20;99.90
11005;DHT22;5555;59.622;16.556;2022-12-20T03:33:35;1.20;99.90
11005;DHT22;5555;59.622;16.556;2022-12-20T03:36:01;1.20;99.90
11005;DHT22;5555;59.622;16.556;2022-12-20T03:38:26;1.20;99.90
11005;DHT22;5555;59.622;16.556;2022-12-20T03:40:52;1.20;99.90
11005;DHT22;5555;59.622;16.556;2022-12-20T03:43:17;1.20;99.90
11005;DHT22;5555;59.622;16.556;2022-12-20T03:45:43;1.20;99.90
11005;DHT22;5555;59.622;16.556;2022-12-20T03:48:09;1.20;99.90
11005;DHT22;5555;59.622;16.556;2022-12-20T03:50:34;1.20;99.90
11005;DHT22;5555;59.622;16.556;2022-12-20T03:53:01;1.20;99.90
11005;DHT22;5555;59.622;16.556;2022-12-20T03:55:27;1.20;99.90
11005;DHT22;5555;59.622;16.556;2022-12-20T03:57:53;1.20;99.90
11005;DHT22;5555;59.622;16.556;2022-12-20T04:00:18;1.20;99.90
11005;DHT22;5555;59.622;16.556;2022-12-20T04:02:45;1.20;99.90
11005;DHT22;5555;59.622;16.556;2022-12-20T04:05:10;1.20;99.90
11005;DHT22;5555;59.622;16.556;2022-12-20T04:07:36;1.20;99.90
11005;DHT22;5555;59.622;16.556;2022-12-20T04:10:01;1.20;99.90
11005;DHT22;5555;59.622;16.556;2022-12-20T04:12:27;1.20;99.90
11005;DHT22;5555;59.622;16.556;2022-12-20T04:14:53;1.20;99.90
11005;DHT22;5555;59.622;16.556;2022-12-20T04:17:19;1.20;99.90
11005;DHT22;5555;59.622;16.556;2022-12-20T04:19:44;1.20;99.90
11005;DHT22;5555;59.622;16.556;2022-12-20T04:22:10;1.20;99.90
11005;DHT22;5555;59.622;16.556;2022-12-20T04:24:36;1.20;99.90
11005;DHT22;5555;59.622;16.556;2022-12-20T04:27:01;1.20;99.90
11005;DHT22;5555;59.622;16.556;2022-12-20T04:29:27;1.20;99.90
11005;DHT22;5555;59.622;16.556;2022-12-20T04:31:53;1.20;99.90
11005;DHT22;5555;59.622;16.556;2022-12-20T04:34:18;1.30;99.90
11005;DHT22;5555;59.622;16.556;2022-12-20T04:36:44;1.20;99.90
11005;DHT22;5555;59.622;16.556;2022-12-20T04:39:09;1.20;99.90
11005;DHT22;5555;59.622;16.556;2022-12-20T04:41:35;1.20;99.90
11005;DHT22;5555;59.622;16.556;2022-12-20T04:44:01;1.20;99.90
11005;DHT22;5555;59.622;16.556;2022-12-20T04:46:26;1.20;99.90
11005;DHT22;5555;59.622;16.556;2022-12-20T04:48:52;1.20;99.90
11005;DHT22;5555;59.622;16.556;2022-12-20T04:51:18;1.20;99.90
11005;DHT22;5555;59.622;16.556;2022-12-20T04:53:43;1.20;99.90
11005;DHT22;5555;59.622;16.556;2022-12-20T04:56:20;1.20;99.90
11005;DHT22;5555;59.622;16.556;2022-12-20T04:58:48;1.20;99.90
11005;DHT22;5555;59.622;16.556;2022-12-20T05:01:15;1.20;99.90
11005;DHT22;5555;59.622;16.556;2022-12-20T05:03:40;1.30;99.90
11005;DHT22;5555;59.622;16.556;2022-12-20T05:06:07;1.20;99.90
11005;DHT22;5555;59.622;16.556;2022-12-20T05:08:33;1.30;99.90
11005;DHT22;5555;59.622;16.556;2022-12-20T05:10:59;1.30;99.90
11005;DHT22;5555;59.622;16.556;2022-12-20T05:13:25;1.20;99.90
11005;DHT22;5555;59.622;16.556;2022-12-20T05:15:52;1.20;99.90
11005;DHT22;5555;59.622;16.556;2022-12-20T05:18:18;1.30;99.90
11005;DHT22;5555;59.622;16.556;2022-12-20T05:20:43;1.20;99.90
11005;DHT22;5555;59.622;16.556;2022-12-20T05:23:10;1.20;99.90
11005;DHT22;5555;59.622;16.556;2022-12-20T05:25:54;1.20;99.90
11005;DHT22;5555;59.622;16.556;2022-12-20T05:28:39;1.20;99.90
11005;DHT22;5555;59.622;16.556;2022-12-20T05:31:04;1.20;99.90
11005;DHT22;5555;59.622;16.556;2022-12-20T05:33:30;1.20;99.90
11005;DHT22;5555;59.622;16.556;2022-12-20T05:35:56;1.20;99.90
11005;DHT22;5555;59.622;16.556;2022-12-20T05:38:22;1.20;99.90
11005;DHT22;5555;59.622;16.556;2022-12-20T05:40:49;1.30;99.90
11005;DHT22;5555;59.622;16.556;2022-12-20T05:43:15;1.20;99.90
11005;DHT22;5555;59.622;16.556;2022-12-20T05:45:46;1.30;99.90
11005;DHT22;5555;59.622;16.556;2022-12-20T05:48:11;1.20;99.90
11005;DHT22;5555;59.622;16.556;2022-12-20T05:50:37;1.30;99.90
11005;DHT22;5555;59.622;16.556;2022-12-20T05:53:02;1.20;99.90
11005;DHT22;5555;59.622;16.556;2022-12-20T05:55:28;1.30;99.90
11005;DHT22;5555;59.622;16.556;2022-12-20T05:57:55;1.20;99.90
11005;DHT22;5555;59.622;16.556;2022-12-20T06:00:20;1.20;99.90
11005;DHT22;5555;59.622;16.556;2022-12-20T06:02:46;1.20;99.90
11005;DHT22;5555;59.622;16.556;2022-12-20T06:05:12;1.20;99.90
11005;DHT22;5555;59.622;16.556;2022-12-20T06:07:37;1.20;99.90
11005;DHT22;5555;59.622;16.556;2022-12-20T06:10:03;1.20;99.90
11005;DHT22;5555;59.622;16.556;2022-12-20T06:12:29;1.30;99.90
11005;DHT22;5555;59.622;16.556;2022-12-20T06:14:54;1.20;99.90
11005;DHT22;5555;59.622;16.556;2022-12-20T06:17:20;1.20;99.90
11005;DHT22;5555;59.622;16.556;2022-12-20T06:19:46;1.30;99.90
11005;DHT22;5555;59.622;16.556;2022-12-20T06:22:12;1.30;99.90
11005;DHT22;5555;59.622;16.556;2022-12-20T06:24:38;1.30;99.90
11005;DHT22;5555;59.622;16.556;2022-12-20T06:27:03;1.30;99.90
11005;DHT22;5555;59.622;16.556;2022-12-20T06:29:31;1.30;99.90
11005;DHT22;5555;59.622;16.556;2022-12-20T06:31:57;1.30;99.90
11005;DHT22;5555;59.622;16.556;2022-12-20T06:34:23;1.30;99.90
11005;DHT22;5555;59.622;16.556;2022-12-20T06:36:48;1.30;99.90
11005;DHT22;5555;59.622;16.556;2022-12-20T06:39:14;1.30;99.90
11005;DHT22;5555;59.622;16.556;2022-12-20T06:41:40;1.40;99.90
11005;DHT22;5555;59.622;16.556;2022-12-20T06:44:06;1.30;99.90
11005;DHT22;5555;59.622;16.556;2022-12-20T06:46:32;1.40;99.90
11005;DHT22;5555;59.622;16.556;2022-12-20T06:48:58;1.40;99.90
11005;DHT22;5555;59.622;16.556;2022-12-20T06:51:23;1.30;99.90
11005;DHT22;5555;59.622;16.556;2022-12-20T06:53:49;1.30;99.90
11005;DHT22;5555;59.622;16.556;2022-12-20T06:56:15;1.40;99.90
11005;DHT22;5555;59.622;16.556;2022-12-20T06:58:40;1.40;99.90
11005;DHT22;5555;59.622;16.556;2022-12-20T07:01:06;1.40;99.90
11005;DHT22;5555;59.622;16.556;2022-12-20T07:03:32;1.40;99.90
11005;DHT22;5555;59.622;16.556;2022-12-20T07:05:58;1.30;99.90
11005;DHT22;5555;59.622;16.556;2022-12-20T07:08:24;1.40;99.90
11005;DHT22;5555;59.622;16.556;2022-12-20T07:10:50;1.40;99.90
11005;DHT22;5555;59.622;16.556;2022-12-20T07:13:17;1.40;99.90
11005;DHT22;5555;59.622;16.556;2022-12-20T07:15:43;1.40;99.90
11005;DHT22;5555;59.622;16.556;2022-12-20T07:18:09;1.40;99.90
11005;DHT22;5555;59.622;16.556;2022-12-20T07:20:34;1.40;99.90
11005;DHT22;5555;59.622;16.556;2022-12-20T07:23:00;1.50;99.90
11005;DHT22;5555;59.622;16.556;2022-12-20T07:25:26;1.40;99.90
11005;DHT22;5555;59.622;16.556;2022-12-20T07:27:52;1.40;99.90
11005;DHT22;5555;59.622;16.556;2022-12-20T07:30:18;1.40;99.90
11005;DHT22;5555;59.622;16.556;2022-12-20T07:32:44;1.40;99.90
11005;DHT22;5555;59.622;16.556;2022-12-20T07:35:11;1.50;99.90
11005;DHT22;5555;59.622;16.556;2022-12-20T07:37:37;1.50;99.90
11005;DHT22;5555;59.622;16.556;2022-12-20T07:40:04;1.50;99.90
11005;DHT22;5555;59.622;16.556;2022-12-20T07:42:31;1.50;99.90
11005;DHT22;5555;59.622;16.556;2022-12-20T07:44:56;1.50;99.90
11005;DHT22;5555;59.622;16.556;2022-12-20T07:47:22;1.50;99.90
11005;DHT22;5555;59.622;16.556;2022-12-20T07:49:48;1.50;99.90
11005;DHT22;5555;59.622;16.556;2022-12-20T07:52:16;1.50;99.90
11005;DHT22;5555;59.622;16.556;2022-12-20T07:54:50;1.50;99.90
11005;DHT22;5555;59.622;16.556;2022-12-20T07:57:28;1.50;99.90
11005;DHT22;5555;59.622;16.556;2022-12-20T07:59:58;1.50;99.90
11005;DHT22;5555;59.622;16.556;2022-12-20T08:02:31;1.50;99.90
11005;DHT22;5555;59.622;16.556;2022-12-20T08:05:00;1.60;99.90
11005;DHT22;5555;59.622;16.556;2022-12-20T08:07:27;1.50;99.90
11005;DHT22;5555;59.622;16.556;2022-12-20T08:09:54;1.50;99.90
11005;DHT22;5555;59.622;16.556;2022-12-20T08:12:20;1.60;99.90
11005;DHT22;5555;59.622;16.556;2022-12-20T08:14:46;1.60;99.90
11005;DHT22;5555;59.622;16.556;2022-12-20T08:17:12;1.60;99.90
11005;DHT22;5555;59.622;16.556;2022-12-20T08:19:38;1.60;99.90
11005;DHT22;5555;59.622;16.556;2022-12-20T08:22:04;1.60;99.90
11005;DHT22;5555;59.622;16.556;2022-12-20T08:24:31;1.60;99.90
11005;DHT22;5555;59.622;16.556;2022-12-20T08:26:57;1.60;99.90
11005;DHT22;5555;59.622;16.556;2022-12-20T08:29:22;1.60;99.90
11005;DHT22;5555;59.622;16.556;2022-12-20T08:31:48;1.60;99.90
11005;DHT22;5555;59.622;16.556;2022-12-20T08:34:14;1.60;99.90
11005;DHT22;5555;59.622;16.556;2022-12-20T08:36:39;1.60;99.90
11005;DHT22;5555;59.622;16.556;2022-12-20T08:39:05;1.60;99.90
11005;DHT22;5555;59.622;16.556;2022-12-20T08:41:33;1.70;99.90
11005;DHT22;5555;59.622;16.556;2022-12-20T08:43:59;1.70;99.90
11005;DHT22;5555;59.622;16.556;2022-12-20T08:46:25;1.70;99.90
11005;DHT22;5555;59.622;16.556;2022-12-20T08:48:51;1.70;99.90
11005;DHT22;5555;59.622;16.556;2022-12-20T08:51:16;1.70;99.90
11005;DHT22;5555;59.622;16.556;2022-12-20T08:53:42;1.70;99.90
11005;DHT22;5555;59.622;16.556;2022-12-20T08:56:10;1.80;99.90
11005;DHT22;5555;59.622;16.556;2022-12-20T08:58:37;1.70;99.90
11005;DHT22;5555;59.622;16.556;2022-12-20T09:01:05;1.70;99.90
11005;DHT22;5555;59.622;16.556;2022-12-20T09:03:32;1.80;99.90
11005;DHT22;5555;59.622;16.556;2022-12-20T09:05:58;1.80;99.90
11005;DHT22;5555;59.622;16.556;2022-12-20T09:08:25;1.80;99.90
11005;DHT22;5555;59.622;16.556;2022-12-20T09:10:51;1.90;99.90
11005;DHT22;5555;59.622;16.556;2022-12-20T09:13:17;1.90;99.90
11005;DHT22;5555;59.622;16.556;2022-12-20T09:15:43;2.00;99.90
11005;DHT22;5555;59.622;16.556;2022-12-20T09:18:10;2.00;99.90
11005;DHT22;5555;59.622;16.556;2022-12-20T09:20:40;2.00;99.90
11005;DHT22;5555;59.622;16.556;2022-12-20T09:23:06;2.00;99.90
11005;DHT22;5555;59.622;16.556;2022-12-20T09:25:32;2.00;99.90
11005;DHT22;5555;59.622;16.556;2022-12-20T09:27:57;2.10;99.90
11005;DHT22;5555;59.622;16.556;2022-12-20T09:30:23;2.10;99.90
11005;DHT22;5555;59.622;16.556;2022-12-20T09:32:49;2.10;99.90
11005;DHT22;5555;59.622;16.556;2022-12-20T09:35:15;2.20;99.90
11005;DHT22;5555;59.622;16.556;2022-12-20T09:37:40;2.20;99.90
11005;DHT22;5555;59.622;16.556;2022-12-20T09:40:13;2.20;99.90
11005;DHT22;5555;59.622;16.556;2022-12-20T09:42:41;2.20;99.90
11005;DHT22;5555;59.622;16.556;2022-12-20T09:45:08;2.20;99.90
11005;DHT22;5555;59.622;16.556;2022-12-20T09:47:36;2.30;99.90
11005;DHT22;5555;59.622;16.556;2022-12-20T09:50:03;2.20;99.90
11005;DHT22;5555;59.622;16.556;2022-12-20T09:55:30;2.30;99.90
11005;DHT22;5555;59.622;16.556;2022-12-20T10:00:33;2.30;99.90
11005;DHT22;5555;59.622;16.556;2022-12-20T10:03:02;2.30;99.90
11005;DHT22;5555;59.622;16.556;2022-12-20T10:05:52;2.30;99.90
11005;DHT22;5555;59.622;16.556;2022-12-20T10:11:07;2.40;99.90
11005;DHT22;5555;59.622;16.556;2022-12-20T10:17:19;2.30;99.90
11005;DHT22;5555;59.622;16.556;2022-12-20T10:22:21;2.40;99.90
11005;DHT22;5555;59.622;16.556;2022-12-20T10:25:17;2.50;99.90
11005;DHT22;5555;59.622;16.556;2022-12-20T10:27:45;2.50;99.90
11005;DHT22;5555;59.622;16.556;2022-12-20T10:30:16;2.50;99.90
11005;DHT22;5555;59.622;16.556;2022-12-20T10:32:45;2.50;99.90
11005;DHT22;5555;59.622;16.556;2022-12-20T10:38:02;2.50;99.90
11005;DHT22;5555;59.622;16.556;2022-12-20T10:40:38;2.50;99.90
11005;DHT22;5555;59.622;16.556;2022-12-20T10:43:05;2.50;99.90
11005;DHT22;5555;59.622;16.556;2022-12-20T10:45:40;2.50;99.90
11005;DHT22;5555;59.622;16.556;2022-12-20T10:48:31;2.60;99.90
11005;DHT22;5555;59.622;16.556;2022-12-20T10:51:01;2.70;99.90
11005;DHT22;5555;59.622;16.556;2022-12-20T10:53:28;2.70;99.90
11005;DHT22;5555;59.622;16.556;2022-12-20T10:56:10;2.80;99.90
11005;DHT22;5555;59.622;16.556;2022-12-20T10:58:37;2.90;99.90
11005;DHT22;5555;59.622;16.556;2022-12-20T11:01:22;2.90;99.90
11005;DHT22;5555;59.622;16.556;2022-12-20T11:03:54;2.90;99.90
11005;DHT22;5555;59.622;16.556;2022-12-20T11:06:22;2.90;99.90
11005;DHT22;5555;59.622;16.556;2022-12-20T11:08:48;3.00;99.90
11005;DHT22;5555;59.622;16.556;2022-12-20T11:11:19;2.90;99.90
11005;DHT22;5555;59.622;16.556;2022-12-20T11:13:47;3.00;99.90
11005;DHT22;5555;59.622;16.556;2022-12-20T11:16:34;3.00;99.90
11005;DHT22;5555;59.622;16.556;2022-12-20T11:22:14;3.00;99.90
11005;DHT22;5555;59.622;16.556;2022-12-20T11:35:24;3.20;99.90
11005;DHT22;5555;59.622;16.556;2022-12-20T11:40:37;3.20;99.90
11005;DHT22;5555;59.622;16.556;2022-12-20T11:43:30;3.30;99.90
11005;DHT22;5555;59.622;16.556;2022-12-20T11:54:09;3.30;99.90
11005;DHT22;5555;59.622;16.556;2022-12-20T11:56:43;3.40;99.90
11005;DHT22;5555;59.622;16.556;2022-12-20T12:01:42;3.50;99.90
11005;DHT22;5555;59.622;16.556;2022-12-20T12:04:20;3.50;99.90
11005;DHT22;5555;59.622;16.556;2022-12-20T12:06:53;3.50;99.90
11005;DHT22;5555;59.622;16.556;2022-12-20T12:09:33;3.60;99.90
11005;DHT22;5555;59.622;16.556;2022-12-20T12:12:09;3.60;99.90
11005;DHT22;5555;59.622;16.556;2022-12-20T12:17:58;3.70;99.90
11005;DHT22;5555;59.622;16.556;2022-12-20T12:25:46;3.80;99.90
11005;DHT22;5555;59.622;16.556;2022-12-20T12:28:13;3.80;99.90
11005;DHT22;5555;59.622;16.556;2022-12-20T12:30:43;3.80;99.90
11005;DHT22;5555;59.622;16.556;2022-12-20T12:33:22;3.90;99.90
11005;DHT22;5555;59.622;16.556;2022-12-20T12:39:09;3.90;99.90
11005;DHT22;5555;59.622;16.556;2022-12-20T12:42:01;4.00;99.90
11005;DHT22;5555;59.622;16.556;2022-12-20T12:48:17;4.00;99.90
11005;DHT22;5555;59.622;16.556;2022-12-20T12:50:49;4.10;99.90
11005;DHT22;5555;59.622;16.556;2022-12-20T13:00:54;4.20;99.90
11005;DHT22;5555;59.622;16.556;2022-12-20T13:16:45;4.30;99.90
11005;DHT22;5555;59.622;16.556;2022-12-20T13:19:13;4.30;99.90
11005;DHT22;5555;59.622;16.556;2022-12-20T13:21:42;4.30;99.90
11005;DHT22;5555;59.622;16.556;2022-12-20T13:24:31;4.20;99.90
11005;DHT22;5555;59.622;16.556;2022-12-20T13:27:01;4.30;99.90
11005;DHT22;5555;59.622;16.556;2022-12-20T13:29:32;4.30;99.90
11005;DHT22;5555;59.622;16.556;2022-12-20T13:31:59;4.20;99.90
11005;DHT22;5555;59.622;16.556;2022-12-20T13:34:54;4.30;99.90
11005;DHT22;5555;59.622;16.556;2022-12-20T13:37:25;4.30;99.90
11005;DHT22;5555;59.622;16.556;2022-12-20T13:39:51;4.30;99.90
11005;DHT22;5555;59.622;16.556;2022-12-20T13:42:33;4.30;99.90
11005;DHT22;5555;59.622;16.556;2022-12-20T13:45:03;4.30;99.90
11005;DHT22;5555;59.622;16.556;2022-12-20T13:47:37;4.40;99.90
11005;DHT22;5555;59.622;16.556;2022-12-20T13:50:27;4.30;99.90
11005;DHT22;5555;59.622;16.556;2022-12-20T13:52:54;4.30;99.90
11005;DHT22;5555;59.622;16.556;2022-12-20T13:55:32;4.20;99.90
11005;DHT22;5555;59.622;16.556;2022-12-20T13:58:10;4.20;99.90
11005;DHT22;5555;59.622;16.556;2022-12-20T14:00:37;4.20;99.90
11005;DHT22;5555;59.622;16.556;2022-12-20T14:03:03;4.10;99.90
11005;DHT22;5555;59.622;16.556;2022-12-20T14:05:35;4.20;99.90
11005;DHT22;5555;59.622;16.556;2022-12-20T14:08:07;4.20;99.90
11005;DHT22;5555;59.622;16.556;2022-12-20T14:10:34;4.20;99.90
11005;DHT22;5555;59.622;16.556;2022-12-20T14:13:01;4.30;99.90
11005;DHT22;5555;59.622;16.556;2022-12-20T14:15:30;4.40;99.90
11005;DHT22;5555;59.622;16.556;2022-12-20T14:18:04;4.40;99.90
11005;DHT22;5555;59.622;16.556;2022-12-20T14:20:32;4.40;99.90
11005;DHT22;5555;59.622;16.556;2022-12-20T14:23:11;4.40;99.90
11005;DHT22;5555;59.622;16.556;2022-12-20T14:28:36;4.40;99.90
11005;DHT22;5555;59.622;16.556;2022-12-20T14:31:05;4.40;99.90
11005;DHT22;5555;59.622;16.556;2022-12-20T14:33:41;4.30;99.90
11005;DHT22;5555;59.622;16.556;2022-12-20T14:36:16;4.30;99.90
11005;DHT22;5555;59.622;16.556;2022-12-20T14:38:54;4.30;99.90
11005;DHT22;5555;59.622;16.556;2022-12-20T14:44:19;4.30;99.90
11005;DHT22;5555;59.622;16.556;2022-12-20T14:46:58;4.30;99.90
11005;DHT22;5555;59.622;16.556;2022-12-20T14:49:29;4.30;99.90
11005;DHT22;5555;59.622;16.556;2022-12-20T14:57:25;4.30;99.90
11005;DHT22;5555;59.622;16.556;2022-12-20T15:00:20;4.20;99.90
11005;DHT22;5555;59.622;16.556;2022-12-20T15:10:52;4.10;99.90
11005;DHT22;5555;59.622;16.556;2022-12-20T15:13:21;4.10;99.90
11005;DHT22;5555;59.622;16.556;2022-12-20T15:15:47;4.10;99.90
11005;DHT22;5555;59.622;16.556;2022-12-20T15:18:17;4.10;99.90
11005;DHT22;5555;59.622;16.556;2022-12-20T15:20:45;4.20;99.90
11005;DHT22;5555;59.622;16.556;2022-12-20T15:23:18;4.20;99.90
11005;DHT22;5555;59.622;16.556;2022-12-20T15:25:44;4.20;99.90
11005;DHT22;5555;59.622;16.556;2022-12-20T15:28:22;4.20;99.90
11005;DHT22;5555;59.622;16.556;2022-12-20T15:30:49;4.20;99.90
11005;DHT22;5555;59.622;16.556;2022-12-20T15:33:26;4.20;99.90
11005;DHT22;5555;59.622;16.556;2022-12-20T15:35:55;4.20;99.90
11005;DHT22;5555;59.622;16.556;2022-12-20T15:38:23;4.30;99.90
11005;DHT22;5555;59.622;16.556;2022-12-20T15:40:52;4.30;99.90
11005;DHT22;5555;59.622;16.556;2022-12-20T15:43:19;4.30;99.90
11005;DHT22;5555;59.622;16.556;2022-12-20T15:45:48;4.30;99.90
11005;DHT22;5555;59.622;16.556;2022-12-20T15:48:22;4.20;99.90
11005;DHT22;5555;59.622;16.556;2022-12-20T15:50:58;4.20;99.90
11005;DHT22;5555;59.622;16.556;2022-12-20T15:53:34;4.20;99.90
11005;DHT22;5555;59.622;16.556;2022-12-20T15:56:00;4.20;99.90
11005;DHT22;5555;59.622;16.556;2022-12-20T15:58:26;4.20;99.90
11005;DHT22;5555;59.622;16.556;2022-12-20T16:00:59;4.30;99.90
11005;DHT22;5555;59.622;16.556;2022-12-20T16:03:30;4.40;99.90
11005;DHT22;5555;59.622;16.556;2022-12-20T16:05:56;4.40;99.90
11005;DHT22;5555;59.622;16.556;2022-12-20T16:08:22;4.50;99.90
11005;DHT22;5555;59.622;16.556;2022-12-20T16:10:50;4.50;99.90
11005;DHT22;5555;59.622;16.556;2022-12-20T16:13:23;4.50;99.90
11005;DHT22;5555;59.622;16.556;2022-12-20T16:15:49;4.60;99.90
11005;DHT22;5555;59.622;16.556;2022-12-20T16:18:15;4.60;99.90
11005;DHT22;5555;59.622;16.556;2022-12-20T16:20:41;4.60;99.90
11005;DHT22;5555;59.622;16.556;2022-12-20T16:23:19;4.70;99.90
11005;DHT22;5555;59.622;16.556;2022-12-20T16:25:48;4.60;99.90
11005;DHT22;5555;59.622;16.556;2022-12-20T16:28:15;4.60;99.90
11005;DHT22;5555;59.622;16.556;2022-12-20T16:30:40;4.60;99.90
11005;DHT22;5555;59.622;16.556;2022-12-20T16:33:17;4.60;99.90
11005;DHT22;5555;59.622;16.556;2022-12-20T16:35:43;4.60;99.90
11005;DHT22;5555;59.622;16.556;2022-12-20T16:38:09;4.60;99.90
11005;DHT22;5555;59.622;16.556;2022-12-20T16:40:35;4.60;99.90
11005;DHT22;5555;59.622;16.556;2022-12-20T16:43:00;4.60;99.90
11005;DHT22;5555;59.622;16.556;2022-12-20T16:45:28;4.60;99.90
11005;DHT22;5555;59.622;16.556;2022-12-20T16:47:55;4.60;99.90
11005;DHT22;5555;59.622;16.556;2022-12-20T16:50:23;4.60;99.90
11005;DHT22;5555;59.622;16.556;2022-12-20T16:52:50;4.60;99.90
11005;DHT22;5555;59.622;16.556;2022-12-20T16:55:22;4.60;99.90
11005;DHT22;5555;59.622;16.556;2022-12-20T16:57:49;4.70;99.90
11005;DHT22;5555;59.622;16.556;2022-12-20T17:00:17;4.70;99.90
11005;DHT22;5555;59.622;16.556;2022-12-20T17:02:43;4.60;99.90
11005;DHT22;5555;59.622;16.556;2022-12-20T17:05:25;4.60;99.90
11005;DHT22;5555;59.622;16.556;2022-12-20T17:07:52;4.60;99.90
11005;DHT22;5555;59.622;16.556;2022-12-20T17:10:18;4.50;99.90
11005;DHT22;5555;59.622;16.556;2022-12-20T17:12:44;4.50;99.90
11005;DHT22;5555;59.622;16.556;2022-12-20T17:15:23;4.50;99.90
11005;DHT22;5555;59.622;16.556;2022-12-20T17:17:49;4.50;99.90
11005;DHT22;5555;59.622;16.556;2022-12-20T17:20:16;4.60;99.90
11005;DHT22;5555;59.622;16.556;2022-12-20T17:22:42;4.80;99.90
11005;DHT22;5555;59.622;16.556;2022-12-20T17:25:30;4.70;99.90
11005;DHT22;5555;59.622;16.556;2022-12-20T17:27:57;4.60;99.90
11005;DHT22;5555;59.622;16.556;2022-12-20T17:30:23;4.60;99.90
11005;DHT22;5555;59.622;16.556;2022-12-20T17:32:50;4.50;99.90
11005;DHT22;5555;59.622;16.556;2022-12-20T17:35:25;4.50;99.90
11005;DHT22;5555;59.622;16.556;2022-12-20T17:37:52;4.50;99.90
11005;DHT22;5555;59.622;16.556;2022-12-20T17:40:20;4.50;99.90
11005;DHT22;5555;59.622;16.556;2022-12-20T17:42:46;4.50;99.90
11005;DHT22;5555;59.622;16.556;2022-12-20T17:45:28;4.50;99.90
11005;DHT22;5555;59.622;16.556;2022-12-20T17:47:55;4.50;99.90
11005;DHT22;5555;59.622;16.556;2022-12-20T17:50:22;4.50;99.90
11005;DHT22;5555;59.622;16.556;2022-12-20T17:52:48;4.60;99.90